sensor_id;sensor_type;location;lat;lon;timestamp;pressure;altitude;pressure_sealevel;temperature
15607;BMP180;7865;50.918;4.510;2023-02-02T00:03:14;101815.00;;;8.00
15607;BMP180;7865;50.918;4.510;2023-02-02T00:08:17;101837.00;;;8.00
15607;BMP180;7865;50.918;4.510;2023-02-02T00:13:19;101830.00;;;8.00
15607;BMP180;7865;50.918;4.510;2023-02-02T00:18:21;101828.00;;;8.00
15607;BMP180;7865;50.918;4.510;2023-02-02T00:23:23;101842.00;;;8.00
15607;BMP180;7865;50.918;4.510;2023-02-02T00:28:25;101832.00;;;8.10
15607;BMP180;7865;50.918;4.510;2023-02-02T00:33:27;101829.00;;;8.10
15607;BMP180;7865;50.918;4.510;2023-02-02T00:38:29;101827.00;;;8.10
15607;BMP180;7865;50.918;4.510;2023-02-02T00:43:32;101825.00;;;8.10
15607;BMP180;7865;50.918;4.510;2023-02-02T00:48:34;101829.00;;;8.10
15607;BMP180;7865;50.918;4.510;2023-02-02T00:53:36;101825.00;;;8.10
15607;BMP180;7865;50.918;4.510;2023-02-02T00:58:38;101822.00;;;8.10
15607;BMP180;7865;50.918;4.510;2023-02-02T01:03:41;101823.00;;;8.10
15607;BMP180;7865;50.918;4.510;2023-02-02T01:08:42;101825.00;;;8.10
15607;BMP180;7865;50.918;4.510;2023-02-02T01:13:44;101821.00;;;8.10
15607;BMP180;7865;50.918;4.510;2023-02-02T01:18:47;101796.00;;;8.10
15607;BMP180;7865;50.918;4.510;2023-02-02T01:23:49;101826.00;;;8.10
15607;BMP180;7865;50.918;4.510;2023-02-02T01:28:51;101828.00;;;8.10
15607;BMP180;7865;50.918;4.510;2023-02-02T01:33:54;101832.00;;;8.00
15607;BMP180;7865;50.918;4.510;2023-02-02T01:38:56;101825.00;;;8.00
15607;BMP180;7865;50.918;4.510;2023-02-02T01:44:04;101840.00;;;8.00
15607;BMP180;7865;50.918;4.510;2023-02-02T01:49:12;101842.00;;;8.00
15607;BMP180;7865;50.918;4.510;2023-02-02T01:54:20;101846.00;;;8.00
15607;BMP180;7865;50.918;4.510;2023-02-02T01:59:24;101837.00;;;8.00
15607;BMP180;7865;50.918;4.510;2023-02-02T02:04:29;101835.00;;;8.00
15607;BMP180;7865;50.918;4.510;2023-02-02T02:09:32;101841.00;;;8.00
15607;BMP180;7865;50.918;4.510;2023-02-02T02:14:34;101840.00;;;8.00
15607;BMP180;7865;50.918;4.510;2023-02-02T02:20:13;101852.00;;;8.00
15607;BMP180;7865;50.918;4.510;2023-02-02T02:42:27;101838.00;;;8.00
15607;BMP180;7865;50.918;4.510;2023-02-02T02:47:31;101833.00;;;8.00
15607;BMP180;7865;50.918;4.510;2023-02-02T02:52:33;101841.00;;;8.00
15607;BMP180;7865;50.918;4.510;2023-02-02T02:57:49;101849.00;;;8.00
15607;BMP180;7865;50.918;4.510;2023-02-02T03:03:21;101844.00;;;7.90
15607;BMP180;7865;50.918;4.510;2023-02-02T03:14:00;101841.00;;;7.90
15607;BMP180;7865;50.918;4.510;2023-02-02T03:19:03;101843.00;;;7.90
15607;BMP180;7865;50.918;4.510;2023-02-02T03:24:05;101852.00;;;7.90
15607;BMP180;7865;50.918;4.510;2023-02-02T03:29:08;101857.00;;;7.90
15607;BMP180;7865;50.918;4.510;2023-02-02T03:34:09;101837.00;;;7.90
15607;BMP180;7865;50.918;4.510;2023-02-02T03:39:11;101852.00;;;7.90
15607;BMP180;7865;50.918;4.510;2023-02-02T03:44:13;101864.00;;;7.90
15607;BMP180;7865;50.918;4.510;2023-02-02T03:49:15;101870.00;;;8.00
15607;BMP180;7865;50.918;4.510;2023-02-02T03:54:17;101845.00;;;7.90
15607;BMP180;7865;50.918;4.510;2023-02-02T03:59:19;101855.00;;;7.90
15607;BMP180;7865;50.918;4.510;2023-02-02T04:04:21;101869.00;;;8.00
15607;BMP180;7865;50.918;4.510;2023-02-02T04:09:24;101870.00;;;8.00
15607;BMP180;7865;50.918;4.510;2023-02-02T04:14:26;101878.00;;;8.00
15607;BMP180;7865;50.918;4.510;2023-02-02T04:19:28;101885.00;;;8.00
15607;BMP180;7865;50.918;4.510;2023-02-02T04:24:30;101889.00;;;7.90
15607;BMP180;7865;50.918;4.510;2023-02-02T04:29:31;101891.00;;;7.90
15607;BMP180;7865;50.918;4.510;2023-02-02T04:34:33;101894.00;;;8.00
15607;BMP180;7865;50.918;4.510;2023-02-02T04:39:35;101890.00;;;8.00
15607;BMP180;7865;50.918;4.510;2023-02-02T04:44:37;101907.00;;;8.00
15607;BMP180;7865;50.918;4.510;2023-02-02T04:49:40;101907.00;;;7.90
15607;BMP180;7865;50.918;4.510;2023-02-02T04:54:42;101912.00;;;7.90
15607;BMP180;7865;50.918;4.510;2023-02-02T04:59:44;101903.00;;;7.90
15607;BMP180;7865;50.918;4.510;2023-02-02T05:04:46;101907.00;;;7.90
15607;BMP180;7865;50.918;4.510;2023-02-02T05:09:48;101893.00;;;7.90
15607;BMP180;7865;50.918;4.510;2023-02-02T05:14:50;101890.00;;;7.90
15607;BMP180;7865;50.918;4.510;2023-02-02T05:19:52;101892.00;;;7.90
15607;BMP180;7865;50.918;4.510;2023-02-02T05:24:54;101904.00;;;7.90
15607;BMP180;7865;50.918;4.510;2023-02-02T05:29:56;101897.00;;;7.90
15607;BMP180;7865;50.918;4.510;2023-02-02T05:34:58;101903.00;;;7.80
15607;BMP180;7865;50.918;4.510;2023-02-02T05:40:00;101890.00;;;7.80
15607;BMP180;7865;50.918;4.510;2023-02-02T05:45:02;101895.00;;;7.80
15607;BMP180;7865;50.918;4.510;2023-02-02T05:50:05;101905.00;;;7.70
15607;BMP180;7865;50.918;4.510;2023-02-02T05:55:08;101906.00;;;7.70
15607;BMP180;7865;50.918;4.510;2023-02-02T06:00:10;101907.00;;;7.60
15607;BMP180;7865;50.918;4.510;2023-02-02T06:05:12;101915.00;;;7.50
15607;BMP180;7865;50.918;4.510;2023-02-02T06:10:14;101919.00;;;7.50
15607;BMP180;7865;50.918;4.510;2023-02-02T06:15:17;101915.00;;;7.40
15607;BMP180;7865;50.918;4.510;2023-02-02T06:20:19;101917.00;;;7.40
15607;BMP180;7865;50.918;4.510;2023-02-02T06:25:23;101921.00;;;7.40
15607;BMP180;7865;50.918;4.510;2023-02-02T06:30:26;101920.00;;;7.40
15607;BMP180;7865;50.918;4.510;2023-02-02T06:35:28;101923.00;;;7.40
15607;BMP180;7865;50.918;4.510;2023-02-02T06:40:30;101926.00;;;7.40
15607;BMP180;7865;50.918;4.510;2023-02-02T06:45:32;101927.00;;;7.40
15607;BMP180;7865;50.918;4.510;2023-02-02T06:50:34;101925.00;;;7.40
15607;BMP180;7865;50.918;4.510;2023-02-02T06:55:36;101932.00;;;7.40
15607;BMP180;7865;50.918;4.510;2023-02-02T07:00:38;101946.00;;;7.50
15607;BMP180;7865;50.918;4.510;2023-02-02T07:05:40;101950.00;;;7.50
15607;BMP180;7865;50.918;4.510;2023-02-02T07:10:42;101956.00;;;7.50
15607;BMP180;7865;50.918;4.510;2023-02-02T07:16:06;101951.00;;;7.50
15607;BMP180;7865;50.918;4.510;2023-02-02T07:21:21;101973.00;;;7.60
15607;BMP180;7865;50.918;4.510;2023-02-02T07:26:23;101974.00;;;7.60
15607;BMP180;7865;50.918;4.510;2023-02-02T07:31:25;101962.00;;;7.60
15607;BMP180;7865;50.918;4.510;2023-02-02T07:36:28;101976.00;;;7.60
15607;BMP180;7865;50.918;4.510;2023-02-02T07:41:30;101966.00;;;7.60
15607;BMP180;7865;50.918;4.510;2023-02-02T07:46:34;101975.00;;;7.60
15607;BMP180;7865;50.918;4.510;2023-02-02T07:51:37;101972.00;;;7.60
15607;BMP180;7865;50.918;4.510;2023-02-02T07:56:43;101969.00;;;7.70
15607;BMP180;7865;50.918;4.510;2023-02-02T08:01:45;101982.00;;;7.70
15607;BMP180;7865;50.918;4.510;2023-02-02T08:06:47;101968.00;;;7.80
15607;BMP180;7865;50.918;4.510;2023-02-02T08:11:49;101977.00;;;8.00
15607;BMP180;7865;50.918;4.510;2023-02-02T08:16:51;101973.00;;;8.10
15607;BMP180;7865;50.918;4.510;2023-02-02T08:21:52;101971.00;;;8.20
15607;BMP180;7865;50.918;4.510;2023-02-02T08:26:54;101974.00;;;8.40
15607;BMP180;7865;50.918;4.510;2023-02-02T08:31:56;101976.00;;;8.60
15607;BMP180;7865;50.918;4.510;2023-02-02T08:36:59;101987.00;;;9.00
15607;BMP180;7865;50.918;4.510;2023-02-02T08:42:01;101993.00;;;9.10
15607;BMP180;7865;50.918;4.510;2023-02-02T08:47:03;102011.00;;;9.00
15607;BMP180;7865;50.918;4.510;2023-02-02T08:52:05;102012.00;;;8.80
15607;BMP180;7865;50.918;4.510;2023-02-02T08:57:07;102009.00;;;9.00
15607;BMP180;7865;50.918;4.510;2023-02-02T09:02:12;102020.00;;;9.30
15607;BMP180;7865;50.918;4.510;2023-02-02T09:07:14;102026.00;;;9.30
15607;BMP180;7865;50.918;4.510;2023-02-02T09:12:16;102050.00;;;9.50
15607;BMP180;7865;50.918;4.510;2023-02-02T09:17:18;102053.00;;;9.50
15607;BMP180;7865;50.918;4.510;2023-02-02T09:22:20;102050.00;;;9.70
15607;BMP180;7865;50.918;4.510;2023-02-02T09:27:22;102064.00;;;9.80
15607;BMP180;7865;50.918;4.510;2023-02-02T09:32:24;102072.00;;;9.80
15607;BMP180;7865;50.918;4.510;2023-02-02T09:37:26;102071.00;;;9.70
15607;BMP180;7865;50.918;4.510;2023-02-02T09:42:47;102079.00;;;9.90
15607;BMP180;7865;50.918;4.510;2023-02-02T09:47:56;102088.00;;;10.10
15607;BMP180;7865;50.918;4.510;2023-02-02T09:58:44;102096.00;;;10.60
15607;BMP180;7865;50.918;4.510;2023-02-02T10:14:35;102095.00;;;10.90
15607;BMP180;7865;50.918;4.510;2023-02-02T10:19:43;102104.00;;;11.50
15607;BMP180;7865;50.918;4.510;2023-02-02T10:24:47;102114.00;;;11.60
15607;BMP180;7865;50.918;4.510;2023-02-02T10:29:57;102125.00;;;11.50
15607;BMP180;7865;50.918;4.510;2023-02-02T10:45:42;102137.00;;;11.80
15607;BMP180;7865;50.918;4.510;2023-02-02T10:50:48;102121.00;;;12.00
15607;BMP180;7865;50.918;4.510;2023-02-02T10:56:19;102136.00;;;12.40
15607;BMP180;7865;50.918;4.510;2023-02-02T11:01:22;102133.00;;;13.50
15607;BMP180;7865;50.918;4.510;2023-02-02T11:06:24;102136.00;;;13.60
15607;BMP180;7865;50.918;4.510;2023-02-02T11:11:49;102130.00;;;14.10
15607;BMP180;7865;50.918;4.510;2023-02-02T11:17:04;102134.00;;;13.80
15607;BMP180;7865;50.918;4.510;2023-02-02T11:22:23;102136.00;;;13.20
15607;BMP180;7865;50.918;4.510;2023-02-02T11:27:30;102126.00;;;13.30
15607;BMP180;7865;50.918;4.510;2023-02-02T11:32:33;102119.00;;;12.60
15607;BMP180;7865;50.918;4.510;2023-02-02T11:38:12;102120.00;;;12.40
15607;BMP180;7865;50.918;4.510;2023-02-02T11:43:22;102115.00;;;13.20
15607;BMP180;7865;50.918;4.510;2023-02-02T11:48:33;102116.00;;;13.30
15607;BMP180;7865;50.918;4.510;2023-02-02T11:53:46;102112.00;;;13.80
15607;BMP180;7865;50.918;4.510;2023-02-02T11:58:51;102116.00;;;13.40
15607;BMP180;7865;50.918;4.510;2023-02-02T12:03:58;102117.00;;;12.70
15607;BMP180;7865;50.918;4.510;2023-02-02T12:09:11;102116.00;;;12.00
15607;BMP180;7865;50.918;4.510;2023-02-02T12:14:46;102096.00;;;12.80
15607;BMP180;7865;50.918;4.510;2023-02-02T12:20:07;102082.00;;;14.10
15607;BMP180;7865;50.918;4.510;2023-02-02T12:25:36;102111.00;;;13.90
15607;BMP180;7865;50.918;4.510;2023-02-02T12:31:18;102099.00;;;14.00
15607;BMP180;7865;50.918;4.510;2023-02-02T12:47:36;102093.00;;;13.10
15607;BMP180;7865;50.918;4.510;2023-02-02T12:53:01;102080.00;;;12.90
15607;BMP180;7865;50.918;4.510;2023-02-02T12:58:22;102077.00;;;12.60
15607;BMP180;7865;50.918;4.510;2023-02-02T13:24:30;102072.00;;;12.30
15607;BMP180;7865;50.918;4.510;2023-02-02T13:29:56;102076.00;;;12.60
15607;BMP180;7865;50.918;4.510;2023-02-02T13:35:05;102063.00;;;13.30
15607;BMP180;7865;50.918;4.510;2023-02-02T13:45:41;102071.00;;;12.50
15607;BMP180;7865;50.918;4.510;2023-02-02T14:01:22;102055.00;;;12.30
15607;BMP180;7865;50.918;4.510;2023-02-02T14:06:26;102047.00;;;12.50
15607;BMP180;7865;50.918;4.510;2023-02-02T14:11:38;102053.00;;;12.00
15607;BMP180;7865;50.918;4.510;2023-02-02T14:16:49;102043.00;;;11.70
15607;BMP180;7865;50.918;4.510;2023-02-02T14:37:28;102081.00;;;10.90
15607;BMP180;7865;50.918;4.510;2023-02-02T14:42:57;102086.00;;;10.60
15607;BMP180;7865;50.918;4.510;2023-02-02T14:48:22;102091.00;;;10.20
15607;BMP180;7865;50.918;4.510;2023-02-02T14:53:39;102108.00;;;9.90
15607;BMP180;7865;50.918;4.510;2023-02-02T14:58:56;102106.00;;;9.70
15607;BMP180;7865;50.918;4.510;2023-02-02T15:04:23;102115.00;;;9.60
15607;BMP180;7865;50.918;4.510;2023-02-02T15:09:26;102114.00;;;9.60
15607;BMP180;7865;50.918;4.510;2023-02-02T15:14:41;102115.00;;;9.60
15607;BMP180;7865;50.918;4.510;2023-02-02T15:19:49;102120.00;;;9.50
15607;BMP180;7865;50.918;4.510;2023-02-02T15:24:53;102121.00;;;9.40
15607;BMP180;7865;50.918;4.510;2023-02-02T15:29:59;102121.00;;;9.40
15607;BMP180;7865;50.918;4.510;2023-02-02T15:35:06;102135.00;;;9.60
15607;BMP180;7865;50.918;4.510;2023-02-02T15:40:14;102132.00;;;9.60
15607;BMP180;7865;50.918;4.510;2023-02-02T15:45:51;102133.00;;;9.60
15607;BMP180;7865;50.918;4.510;2023-02-02T15:50:57;102146.00;;;9.60
15607;BMP180;7865;50.918;4.510;2023-02-02T16:01:25;102146.00;;;9.50
15607;BMP180;7865;50.918;4.510;2023-02-02T16:06:28;102148.00;;;9.50
15607;BMP180;7865;50.918;4.510;2023-02-02T16:11:30;102149.00;;;9.40
15607;BMP180;7865;50.918;4.510;2023-02-02T16:16:35;102140.00;;;9.40
15607;BMP180;7865;50.918;4.510;2023-02-02T16:21:43;102148.00;;;9.30
15607;BMP180;7865;50.918;4.510;2023-02-02T16:26:46;102154.00;;;9.20
15607;BMP180;7865;50.918;4.510;2023-02-02T16:31:49;102162.00;;;9.20
15607;BMP180;7865;50.918;4.510;2023-02-02T16:37:23;102155.00;;;9.30
15607;BMP180;7865;50.918;4.510;2023-02-02T16:42:29;102166.00;;;9.30
15607;BMP180;7865;50.918;4.510;2023-02-02T16:47:34;102177.00;;;9.30
15607;BMP180;7865;50.918;4.510;2023-02-02T16:52:56;102176.00;;;9.30
15607;BMP180;7865;50.918;4.510;2023-02-02T16:57:59;102178.00;;;9.20
15607;BMP180;7865;50.918;4.510;2023-02-02T17:03:06;102181.00;;;9.20
15607;BMP180;7865;50.918;4.510;2023-02-02T17:08:09;102182.00;;;9.20
15607;BMP180;7865;50.918;4.510;2023-02-02T17:18:32;102184.00;;;9.20
15607;BMP180;7865;50.918;4.510;2023-02-02T17:23:35;102185.00;;;9.20
15607;BMP180;7865;50.918;4.510;2023-02-02T17:28:39;102188.00;;;9.20
15607;BMP180;7865;50.918;4.510;2023-02-02T17:33:41;102196.00;;;9.20
15607;BMP180;7865;50.918;4.510;2023-02-02T17:38:46;102187.00;;;9.00
15607;BMP180;7865;50.918;4.510;2023-02-02T17:43:48;102187.00;;;8.90
15607;BMP180;7865;50.918;4.510;2023-02-02T17:48:50;102201.00;;;8.70
15607;BMP180;7865;50.918;4.510;2023-02-02T17:53:52;102201.00;;;8.60
15607;BMP180;7865;50.918;4.510;2023-02-02T17:58:55;102199.00;;;8.50
15607;BMP180;7865;50.918;4.510;2023-02-02T18:03:57;102207.00;;;8.50
15607;BMP180;7865;50.918;4.510;2023-02-02T18:09:01;102199.00;;;8.40
15607;BMP180;7865;50.918;4.510;2023-02-02T18:14:03;102199.00;;;8.30
15607;BMP180;7865;50.918;4.510;2023-02-02T18:19:05;102187.00;;;8.40
15607;BMP180;7865;50.918;4.510;2023-02-02T18:24:11;102183.00;;;8.50
15607;BMP180;7865;50.918;4.510;2023-02-02T18:29:16;102187.00;;;8.50
15607;BMP180;7865;50.918;4.510;2023-02-02T18:34:18;102185.00;;;8.60
15607;BMP180;7865;50.918;4.510;2023-02-02T18:39:22;102180.00;;;8.70
15607;BMP180;7865;50.918;4.510;2023-02-02T18:44:24;102184.00;;;8.70
15607;BMP180;7865;50.918;4.510;2023-02-02T18:49:28;102183.00;;;8.80
15607;BMP180;7865;50.918;4.510;2023-02-02T18:54:30;102190.00;;;8.80
15607;BMP180;7865;50.918;4.510;2023-02-02T18:59:34;102196.00;;;8.80
15607;BMP180;7865;50.918;4.510;2023-02-02T19:04:36;102191.00;;;8.90
15607;BMP180;7865;50.918;4.510;2023-02-02T19:09:38;102190.00;;;8.90
15607;BMP180;7865;50.918;4.510;2023-02-02T19:14:41;102189.00;;;8.90
15607;BMP180;7865;50.918;4.510;2023-02-02T19:19:43;102200.00;;;8.90
15607;BMP180;7865;50.918;4.510;2023-02-02T19:24:51;102201.00;;;9.00
15607;BMP180;7865;50.918;4.510;2023-02-02T19:29:55;102211.00;;;9.00
15607;BMP180;7865;50.918;4.510;2023-02-02T19:35:00;102203.00;;;9.00
15607;BMP180;7865;50.918;4.510;2023-02-02T19:50:24;102199.00;;;9.00
15607;BMP180;7865;50.918;4.510;2023-02-02T19:55:28;102186.00;;;9.00
15607;BMP180;7865;50.918;4.510;2023-02-02T20:00:35;102180.00;;;9.00
15607;BMP180;7865;50.918;4.510;2023-02-02T20:05:41;102181.00;;;8.90
15607;BMP180;7865;50.918;4.510;2023-02-02T20:10:45;102173.00;;;8.90
15607;BMP180;7865;50.918;4.510;2023-02-02T20:15:50;102181.00;;;9.00
15607;BMP180;7865;50.918;4.510;2023-02-02T20:20:54;102200.00;;;9.00
15607;BMP180;7865;50.918;4.510;2023-02-02T20:25:57;102204.00;;;9.00
15607;BMP180;7865;50.918;4.510;2023-02-02T20:31:02;102191.00;;;9.00
15607;BMP180;7865;50.918;4.510;2023-02-02T20:36:24;102198.00;;;9.00
15607;BMP180;7865;50.918;4.510;2023-02-02T20:41:27;102199.00;;;9.10
15607;BMP180;7865;50.918;4.510;2023-02-02T20:46:29;102200.00;;;9.00
15607;BMP180;7865;50.918;4.510;2023-02-02T20:51:31;102203.00;;;9.10
15607;BMP180;7865;50.918;4.510;2023-02-02T20:56:33;102193.00;;;9.10
15607;BMP180;7865;50.918;4.510;2023-02-02T21:01:35;102207.00;;;9.10
15607;BMP180;7865;50.918;4.510;2023-02-02T21:06:39;102218.00;;;9.10
15607;BMP180;7865;50.918;4.510;2023-02-02T21:11:43;102226.00;;;9.10
15607;BMP180;7865;50.918;4.510;2023-02-02T21:16:45;102230.00;;;9.10
15607;BMP180;7865;50.918;4.510;2023-02-02T21:21:47;102230.00;;;9.10
15607;BMP180;7865;50.918;4.510;2023-02-02T21:26:51;102239.00;;;9.10
15607;BMP180;7865;50.918;4.510;2023-02-02T21:31:54;102240.00;;;9.10
15607;BMP180;7865;50.918;4.510;2023-02-02T21:37:00;102243.00;;;9.10
15607;BMP180;7865;50.918;4.510;2023-02-02T21:42:09;102246.00;;;9.20
15607;BMP180;7865;50.918;4.510;2023-02-02T21:47:28;102227.00;;;9.20
15607;BMP180;7865;50.918;4.510;2023-02-02T21:52:31;102231.00;;;9.20
15607;BMP180;7865;50.918;4.510;2023-02-02T21:57:35;102230.00;;;9.20
15607;BMP180;7865;50.918;4.510;2023-02-02T22:02:40;102235.00;;;9.20
15607;BMP180;7865;50.918;4.510;2023-02-02T22:07:48;102231.00;;;9.20
15607;BMP180;7865;50.918;4.510;2023-02-02T22:12:51;102241.00;;;9.20
15607;BMP180;7865;50.918;4.510;2023-02-02T22:17:52;102237.00;;;9.20
15607;BMP180;7865;50.918;4.510;2023-02-02T22:22:54;102236.00;;;9.20
15607;BMP180;7865;50.918;4.510;2023-02-02T22:27:58;102236.00;;;9.20
15607;BMP180;7865;50.918;4.510;2023-02-02T22:33:03;102249.00;;;9.20
15607;BMP180;7865;50.918;4.510;2023-02-02T22:38:06;102247.00;;;9.20
15607;BMP180;7865;50.918;4.510;2023-02-02T22:43:09;102260.00;;;9.30
15607;BMP180;7865;50.918;4.510;2023-02-02T22:48:14;102247.00;;;9.30
15607;BMP180;7865;50.918;4.510;2023-02-02T22:53:16;102241.00;;;9.30
15607;BMP180;7865;50.918;4.510;2023-02-02T22:58:22;102246.00;;;9.20
15607;BMP180;7865;50.918;4.510;2023-02-02T23:03:25;102255.00;;;9.30
15607;BMP180;7865;50.918;4.510;2023-02-02T23:08:27;102265.00;;;9.30
15607;BMP180;7865;50.918;4.510;2023-02-02T23:13:30;102240.00;;;9.30
15607;BMP180;7865;50.918;4.510;2023-02-02T23:18:32;102232.00;;;9.30
15607;BMP180;7865;50.918;4.510;2023-02-02T23:23:33;102218.00;;;9.20
15607;BMP180;7865;50.918;4.510;2023-02-02T23:28:35;102216.00;;;9.20
15607;BMP180;7865;50.918;4.510;2023-02-02T23:33:37;102218.00;;;9.30
15607;BMP180;7865;50.918;4.510;2023-02-02T23:38:39;102202.00;;;9.30
15607;BMP180;7865;50.918;4.510;2023-02-02T23:43:41;102210.00;;;9.30
15607;BMP180;7865;50.918;4.510;2023-02-02T23:48:43;102207.00;;;9.30
15607;BMP180;7865;50.918;4.510;2023-02-02T23:53:45;102193.00;;;9.30
15607;BMP180;7865;50.918;4.510;2023-02-02T23:58:48;102164.00;;;9.30
